Time;durP1;ratioP1;P1;durP2;ratioP2;P2;SDS_P1;SDS_P2;PMS_P1;PMS_P2;Temp;Humidity;BMP_temperature;BMP_pressure;BME280_temperature;BME280_humidity;BME280_pressure;Samples;Min_cycle;Max_cycle;Signal;HPM_P1;HPM_P2
2022/11/23 06:39:12;;;;;;;39.05;22.27;;;;;;;-2.09;100.00;97358.93;1871546;76;27965;-64
2022/11/23 06:41:39;;;;;;;38.48;22.52;;;;;;;-2.11;100.00;97366.73;1830433;77;20880;-64
2022/11/23 06:44:06;;;;;;;40.17;20.57;;;;;;;-2.07;100.00;97363.94;1840668;77;21118;-66
2022/11/23 06:46:35;;;;;;;32.80;17.73;;;;;;;-2.00;100.00;97369.11;1853853;77;20867;-63
2022/11/23 06:49:01;;;;;;;29.12;15.90;;;;;;;-1.97;100.00;97365.51;1864885;76;20859;-66
2022/11/23 06:51:28;;;;;;;26.57;16.00;;;;;;;-1.88;100.00;97363.34;1864425;77;20867;-66
2022/11/23 06:53:55;;;;;;;27.65;16.25;;;;;;;-1.78;100.00;97355.20;1864499;76;20977;-64
2022/11/23 06:56:22;;;;;;;26.35;16.67;;;;;;;-1.74;100.00;97349.78;1864883;76;21266;-63
2022/11/23 06:58:49;;;;;;;20.62;13.15;;;;;;;-1.68;100.00;97350.70;1860199;76;20870;-61
2022/11/23 07:01:18;;;;;;;20.10;13.30;;;;;;;-1.58;100.00;97364.08;1823210;78;21384;-61
2022/11/23 07:03:49;;;;;;;18.65;12.05;;;;;;;-1.45;100.00;97364.64;1822733;78;20928;-67
2022/11/23 07:06:24;;;;;;;20.27;13.25;;;;;;;-1.35;100.00;97360.63;1829710;77;21456;-62
2022/11/23 07:08:54;;;;;;;16.67;12.75;;;;;;;-1.31;100.00;97359.95;1823718;78;21172;-62
2022/11/23 07:11:29;;;;;;;19.98;13.68;;;;;;;-1.27;100.00;97360.30;1760186;79;21512;-62
2022/11/23 07:13:56;;;;;;;17.48;11.38;;;;;;;-1.27;100.00;97376.06;1811646;77;20983;-62
2022/11/23 07:16:26;;;;;;;25.00;12.35;;;;;;;-1.31;100.00;97378.34;1815153;77;20962;-62
2022/11/23 07:18:52;;;;;;;17.07;12.18;;;;;;;-1.42;100.00;97379.95;1814609;77;20994;-62
2022/11/23 07:21:19;;;;;;;17.23;11.43;;;;;;;-1.45;100.00;97369.09;1824750;77;21045;-63
2022/11/23 07:23:47;;;;;;;25.62;16.10;;;;;;;-1.42;100.00;97361.56;1823072;77;20915;-64
2022/11/23 07:26:15;;;;;;;42.30;21.57;;;;;;;-1.39;100.00;97356.37;1813567;77;20911;-63
2022/11/23 07:28:41;;;;;;;35.80;14.43;;;;;;;-1.37;100.00;97350.37;1824199;77;21077;-64
2022/11/23 07:31:10;;;;;;;24.95;14.33;;;;;;;-1.39;100.00;97348.48;1820482;77;21009;-64
2022/11/23 07:33:37;;;;;;;21.87;13.38;;;;;;;-1.40;100.00;97352.13;1817343;77;21119;-64
2022/11/23 07:36:06;;;;;;;24.45;14.20;;;;;;;-1.42;100.00;97345.00;1845259;77;20910;-63
2022/11/23 07:38:32;;;;;;;24.75;14.23;;;;;;;-1.43;100.00;97344.70;1859358;77;21321;-64
2022/11/23 07:41:00;;;;;;;20.48;14.15;;;;;;;-1.37;100.00;97347.74;1817797;77;20851;-64
2022/11/23 07:43:35;;;;;;;15.70;11.33;;;;;;;-1.32;100.00;97353.62;1784264;78;26850;-64
2022/11/23 07:46:02;;;;;;;16.93;10.68;;;;;;;-1.30;100.00;97356.81;1798675;77;21234;-64
2022/11/23 07:48:28;;;;;;;18.73;12.23;;;;;;;-1.37;100.00;97361.66;1808917;77;21357;-63
2022/11/23 07:50:55;;;;;;;53.78;34.40;;;;;;;-1.47;100.00;97390.34;1796795;77;21496;-64
2022/11/23 07:53:22;;;;;;;28.12;19.20;;;;;;;-1.58;100.00;97389.03;1797246;77;21050;-64
2022/11/23 07:55:49;;;;;;;25.80;14.38;;;;;;;-1.63;100.00;97396.28;1820497;77;20832;-64
2022/11/23 07:58:15;;;;;;;30.23;22.45;;;;;;;-1.62;100.00;97389.98;1807638;77;21662;-65
2022/11/23 08:00:42;;;;;;;17.37;12.20;;;;;;;-1.65;100.00;97374.67;1796356;78;20891;-64
2022/11/23 08:03:12;;;;;;;16.87;10.93;;;;;;;-1.57;100.00;97376.97;1796406;78;20867;-65
2022/11/23 08:05:38;;;;;;;17.85;11.68;;;;;;;-1.55;100.00;97374.91;1827872;77;20915;-64
2022/11/23 08:08:05;;;;;;;12.73;9.58;;;;;;;-1.57;100.00;97367.78;1824274;77;20989;-64
2022/11/23 08:10:33;;;;;;;19.60;10.72;;;;;;;-1.62;100.00;97358.47;1812047;77;20961;-64
2022/11/23 08:13:03;;;;;;;15.88;11.35;;;;;;;-1.65;100.00;97357.60;1805691;77;21031;-64
2022/11/23 08:15:29;;;;;;;19.62;11.15;;;;;;;-1.65;100.00;97361.54;1785175;77;20872;-63
2022/11/23 08:17:57;;;;;;;17.60;12.18;;;;;;;-1.62;100.00;97347.97;1802701;78;20887;-65
2022/11/23 08:20:26;;;;;;;17.95;11.55;;;;;;;-1.54;100.00;97341.58;1816251;77;20963;-65
2022/11/23 08:22:54;;;;;;;82.95;57.10;;;;;;;-1.47;100.00;97333.87;1804561;77;21238;-65
2022/11/23 08:25:24;;;;;;;39.35;24.63;;;;;;;-1.41;100.00;97326.37;1819308;78;20832;-64
2022/11/23 08:27:58;;;;;;;30.45;21.35;;;;;;;-1.32;100.00;97319.46;1824634;77;20978;-64
2022/11/23 08:30:27;;;;;;;35.17;25.65;;;;;;;-1.25;100.00;97321.45;1810306;77;20962;-65
2022/11/23 08:32:54;;;;;;;29.60;20.57;;;;;;;-1.16;100.00;97317.42;1792603;78;20966;-66
2022/11/23 08:35:21;;;;;;;49.58;34.27;;;;;;;-1.05;100.00;97326.59;1789393;80;21294;-66
2022/11/23 08:37:48;;;;;;;27.65;17.32;;;;;;;-1.00;100.00;97330.65;1818671;77;20967;-66
2022/11/23 08:40:15;;;;;;;32.78;20.95;;;;;;;-1.02;100.00;97335.85;1819648;77;21469;-66
2022/11/23 08:42:42;;;;;;;17.67;11.48;;;;;;;-1.05;100.00;97343.69;1821734;78;20924;-66
2022/11/23 08:45:10;;;;;;;20.50;13.68;;;;;;;-1.02;100.00;97341.11;1821821;78;21421;-66
2022/11/23 08:47:37;;;;;;;20.50;11.18;;;;;;;-1.01;100.00;97352.69;1812109;78;21832;-64
2022/11/23 08:50:07;;;;;;;18.32;12.15;;;;;;;-1.00;100.00;97336.41;1822094;78;21496;-64
2022/11/23 08:52:34;;;;;;;17.77;12.05;;;;;;;-1.04;100.00;97328.72;1803628;78;20994;-63
2022/11/23 08:55:04;;;;;;;18.02;12.75;;;;;;;-1.04;100.00;97316.38;1821870;78;20924;-60
2022/11/23 08:57:31;;;;;;;25.68;14.30;;;;;;;-0.99;100.00;97306.48;1822045;78;20880;-64
2022/11/23 08:59:58;;;;;;;26.33;17.17;;;;;;;-0.89;100.00;97308.77;1821777;77;21762;-63
2022/11/23 09:02:25;;;;;;;21.40;15.45;;;;;;;-0.81;100.00;97320.76;1820963;78;20951;-63
2022/11/23 09:04:51;;;;;;;18.42;12.98;;;;;;;-0.78;100.00;97331.59;1814432;78;20977;-66
2022/11/23 09:07:21;;;;;;;16.60;11.90;;;;;;;-0.78;100.00;97332.91;1804146;78;20908;-68
2022/11/23 09:09:49;;;;;;;20.92;15.32;;;;;;;-0.77;100.00;97329.77;1788994;79;21538;-71
2022/11/23 09:12:16;;;;;;;23.50;15.20;;;;;;;-0.77;100.00;97333.20;1789404;80;21296;-71
2022/11/23 09:14:43;;;;;;;26.02;16.55;;;;;;;-0.75;100.00;97325.87;1789586;80;20849;-70
2022/11/23 09:17:09;;;;;;;27.10;17.77;;;;;;;-0.73;100.00;97304.63;1789429;79;20821;-69
2022/11/23 09:19:36;;;;;;;28.45;17.65;;;;;;;-0.82;99.36;97309.95;1789417;80;20931;-68
2022/11/23 09:22:02;;;;;;;30.10;17.60;;;;;;;-0.86;99.61;97309.63;1809847;78;20972;-64
2022/11/23 09:24:29;;;;;;;28.73;19.05;;;;;;;-0.84;99.70;97295.73;1821553;78;21101;-69
2022/11/23 09:26:57;;;;;;;29.10;16.85;;;;;;;-0.76;99.76;97289.30;1821501;78;20865;-66
2022/11/23 09:29:24;;;;;;;28.92;17.20;;;;;;;-0.79;98.71;97298.45;1821502;78;20979;-58
2022/11/23 09:31:51;;;;;;;27.50;18.30;;;;;;;-0.89;98.96;97303.52;1819124;77;20923;-67
2022/11/23 09:34:18;;;;;;;29.67;18.73;;;;;;;-0.84;99.36;97304.13;1796369;78;21381;-64
2022/11/23 09:36:46;;;;;;;23.90;15.55;;;;;;;-0.83;99.23;97294.71;1819368;78;21235;-66
2022/11/23 09:39:13;;;;;;;22.58;15.20;;;;;;;-0.84;99.16;97294.41;1805610;77;20869;-62
2022/11/23 09:41:55;;;;;;;25.20;15.05;;;;;;;-0.88;99.26;97299.06;1794473;79;20880;-68
2022/11/23 09:45:02;;;;;;;22.20;15.35;;;;;;;-0.92;99.04;97287.42;1783247;80;20923;-61
2022/11/23 09:47:43;;;;;;;22.40;15.68;;;;;;;-0.99;98.88;97285.45;1783444;79;20916;-66
2022/11/23 09:50:48;;;;;;;26.55;15.38;;;;;;;-1.08;98.76;97273.68;1782810;80;22125;-68
2022/11/23 09:53:22;;;;;;;27.05;16.02;;;;;;;-1.18;98.61;97264.31;1791076;77;20955;-65
2022/11/23 09:55:51;;;;;;;22.17;14.33;;;;;;;-1.26;98.64;97262.03;1811439;77;21127;-66
2022/11/23 09:58:22;;;;;;;27.67;18.73;;;;;;;-1.30;98.92;97261.72;1797442;78;21049;-71
2022/11/23 10:01:06;;;;;;;19.37;13.03;;;;;;;-1.26;99.18;97256.78;1817959;78;21676;-69
2022/11/23 10:03:39;;;;;;;22.13;15.85;;;;;;;-1.18;99.25;97256.42;1815343;78;21245;-70
2022/11/23 10:06:30;;;;;;;29.42;21.90;;;;;;;-1.18;98.90;97249.85;1812478;78;20912;-69
2022/11/23 10:09:35;;;;;;;25.30;17.20;;;;;;;-1.17;98.91;97248.30;1814666;78;22205;-69
2022/11/23 10:12:28;;;;;;;16.37;11.20;;;;;;;-1.10;99.09;97254.72;1811828;78;20853;-69
2022/11/23 10:15:13;;;;;;;16.23;11.03;;;;;;;-0.97;98.89;97258.41;1795735;79;20928;-68
2022/11/23 10:18:09;;;;;;;18.62;12.07;;;;;;;-0.95;98.43;97241.37;1792808;78;20984;-67
2022/11/23 10:20:56;;;;;;;17.60;12.60;;;;;;;-0.96;98.30;97226.61;1821511;78;20967;-66
2022/11/23 10:26:32;;;;;;;19.50;12.37;;;;;;;-0.92;98.30;97225.64;1757583;81;21096;-66
2022/11/23 10:29:13;;;;;;;17.70;12.10;;;;;;;-0.94;97.99;97227.69;1766506;81;21049;-63
2022/11/23 10:31:47;;;;;;;15.32;11.38;;;;;;;-0.96;98.13;97233.70;1765836;81;21066;-60
2022/11/23 10:34:18;;;;;;;15.90;11.40;;;;;;;-0.95;98.28;97222.97;1768651;81;20964;-63
2022/11/23 10:36:45;;;;;;;16.55;11.65;;;;;;;-0.90;98.17;97211.74;1749982;81;21103;-64
2022/11/23 10:39:26;;;;;;;12.65;10.50;;;;;;;-0.89;98.13;97228.59;1750547;81;20889;-63
2022/11/23 10:41:56;;;;;;;15.08;10.23;;;;;;;-0.89;97.89;97215.95;1750630;79;20920;-64
2022/11/23 10:44:37;;;;;;;17.67;10.93;;;;;;;-0.90;97.83;97211.74;1754380;81;21247;-62
2022/11/23 10:47:07;;;;;;;14.30;11.05;;;;;;;-0.90;97.68;97207.29;1760208;81;20905;-64
2022/11/23 10:49:42;;;;;;;14.93;11.70;;;;;;;-0.91;97.67;97202.25;1763857;81;20940;-65
2022/11/23 10:52:31;;;;;;;14.23;10.98;;;;;;;-0.89;97.62;97202.80;1739749;81;20955;-62
2022/11/23 10:55:01;;;;;;;14.83;11.08;;;;;;;-0.89;97.51;97206.23;1762273;81;20991;-68
2022/11/23 10:57:33;;;;;;;15.30;11.25;;;;;;;-0.93;97.25;97199.06;1754133;81;21100;-63
2022/11/23 11:00:16;;;;;;;17.62;11.55;;;;;;;-0.93;97.35;97205.63;1766995;81;21056;-66
2022/11/23 11:02:50;;;;;;;17.07;12.63;;;;;;;-0.94;97.35;97199.57;1758297;80;21088;-63
2022/11/23 11:05:31;;;;;;;13.48;10.10;;;;;;;-0.90;97.56;97192.83;1768146;80;21149;-64
2022/11/23 11:08:12;;;;;;;16.02;11.40;;;;;;;-0.88;97.31;97191.27;1768057;81;21529;-65
2022/11/23 11:10:50;;;;;;;15.45;11.15;;;;;;;-0.82;97.35;97200.83;1765376;80;21241;-65
2022/11/23 11:13:23;;;;;;;14.58;10.15;;;;;;;-0.79;97.31;97197.73;1774561;80;21062;-64
2022/11/23 11:15:59;;;;;;;14.05;10.05;;;;;;;-0.74;97.15;97192.56;1758120;81;21044;-64
2022/11/23 11:18:35;;;;;;;13.20;9.80;;;;;;;-0.73;97.25;97187.05;1760266;80;20889;-64
2022/11/23 11:21:08;;;;;;;;;;;;;;;-0.62;97.24;97184.59;1771982;80;21502;-62
2022/11/23 11:23:34;;;;;;;15.10;10.72;;;;;;;-0.59;96.80;97178.36;1742022;80;21799;-62
2022/11/23 11:26:07;;;;;;;21.07;11.65;;;;;;;-0.58;96.80;97183.88;1750747;81;21058;-62
2022/11/23 11:28:39;;;;;;;21.68;13.75;;;;;;;-0.56;96.78;97192.33;1754874;80;21047;-63
2022/11/23 11:31:42;;;;;;;20.05;12.73;;;;;;;-0.54;96.92;97184.98;1747210;80;21494;-63
2022/11/23 11:34:20;;;;;;;15.93;11.43;;;;;;;-0.48;97.01;97184.05;1773403;80;21065;-62
2022/11/23 11:37:11;;;;;;;13.38;10.78;;;;;;;-0.41;96.67;97176.80;1752790;81;21200;-62
2022/11/23 11:39:58;;;;;;;15.23;11.30;;;;;;;-0.36;96.83;97176.88;1767996;81;21019;-63
2022/11/23 11:42:50;;;;;;;13.95;11.20;;;;;;;-0.36;96.19;97175.56;1772460;80;21418;-61
2022/11/23 11:45:27;;;;;;;14.80;10.88;;;;;;;-0.38;96.23;97172.38;1667606;84;21012;-64
2022/11/23 11:48:05;;;;;;;15.20;11.03;;;;;;;-0.41;96.40;97168.90;1726966;82;21090;-64
2022/11/23 11:50:40;;;;;;;17.12;12.45;;;;;;;-0.35;96.49;97169.24;1736334;82;21236;-63
2022/11/23 11:53:12;;;;;;;15.00;11.40;;;;;;;-0.28;96.47;97169.06;1742147;81;20909;-65
2022/11/23 11:56:01;;;;;;;17.30;12.80;;;;;;;-0.24;96.23;97167.57;1749091;81;20920;-65
2022/11/23 11:58:29;;;;;;;15.05;11.85;;;;;;;-0.23;96.20;97168.64;1756349;81;21456;-65
2022/11/23 12:01:07;;;;;;;16.40;13.18;;;;;;;-0.18;96.24;97170.54;1736530;82;21071;-64
2022/11/23 12:03:54;;;;;;;16.73;11.75;;;;;;;-0.15;96.21;97168.23;1711856;81;21757;-64
2022/11/23 12:06:29;;;;;;;17.77;12.78;;;;;;;-0.13;96.08;97163.52;1757748;81;20933;-63
2022/11/23 12:09:14;;;;;;;17.37;12.00;;;;;;;-0.07;96.13;97165.17;1766424;81;20939;-63
2022/11/23 12:11:42;;;;;;;18.77;12.53;;;;;;;-0.10;95.60;97165.68;1761632;81;21031;-65
2022/11/23 12:14:13;;;;;;;19.00;13.90;;;;;;;-0.15;95.66;97169.55;1754854;81;21516;-65
2022/11/23 12:17:02;;;;;;;20.15;14.75;;;;;;;-0.21;95.66;97165.23;1738726;81;21359;-64
2022/11/23 12:19:37;;;;;;;28.32;19.55;;;;;;;-0.24;95.85;97174.95;1753996;81;21521;-62
2022/11/23 12:22:21;;;;;;;20.30;14.90;;;;;;;-0.27;95.90;97175.94;1689425;81;21032;-65
2022/11/23 12:25:10;;;;;;;17.87;13.98;;;;;;;-0.30;95.98;97169.83;1749967;81;21015;-66
2022/11/23 12:27:57;;;;;;;19.42;13.72;;;;;;;-0.32;96.19;97176.66;1672006;82;21466;-61
2022/11/23 12:30:50;;;;;;;17.35;13.05;;;;;;;-0.35;96.08;97180.28;1741535;81;21248;-64
2022/11/23 12:33:59;;;;;;;15.32;11.22;;;;;;;-0.38;96.12;97177.64;1757651;80;21479;-70
2022/11/23 12:36:54;;;;;;;14.80;11.18;;;;;;;-0.41;96.41;97180.73;1737024;82;20989;-71
2022/11/23 12:40:06;;;;;;;15.18;11.73;;;;;;;-0.41;96.55;97173.36;1743375;81;20939;-64
2022/11/23 12:42:39;;;;;;;13.88;11.57;;;;;;;-0.33;96.71;97172.42;1652542;86;21130;-62
2022/11/23 12:45:30;;;;;;;15.90;11.65;;;;;;;-0.30;96.46;97165.37;1651073;87;21812;-65
2022/11/23 12:48:26;;;;;;;15.05;12.70;;;;;;;-0.31;96.47;97165.11;1655635;85;20990;-65
2022/11/23 12:51:19;;;;;;;16.55;13.55;;;;;;;-0.26;96.71;97171.74;1679885;82;20992;-63
2022/11/23 12:54:13;;;;;;;25.02;19.70;;;;;;;-0.23;96.66;97165.20;1766975;80;20932;-68
2022/11/23 12:57:09;;;;;;;19.37;14.85;;;;;;;-0.19;96.82;97161.84;1780638;80;21414;-67
2022/11/23 12:59:56;;;;;;;15.65;11.50;;;;;;;-0.20;96.87;97155.00;1766121;80;22000;-61
